Time;durP1;ratioP1;P1;durP2;ratioP2;P2;SDS_P1;SDS_P2;PMS_P1;PMS_P2;Temp;Humidity;BMP_temperature;BMP_pressure;BME280_temperature;BME280_humidity;BME280_pressure;Samples;Min_cycle;Max_cycle;Signal;HPM_P1;HPM_P2
2023/08/17 00:00:20;;;;;;;8.95;6.57;;;;;;;18.83;100.00;96000.03;1033998;28;20065;-79
2023/08/17 00:00:51;;;;;;;10.25;5.95;;;;;;;18.71;100.00;95983.84;1030137;28;20050;-78
2023/08/17 00:01:21;;;;;;;10.02;6.28;;;;;;;18.79;100.00;95993.75;1026573;28;20030;-77
2023/08/17 00:01:52;;;;;;;11.32;6.72;;;;;;;18.74;100.00;95999.22;1022430;29;20019;-78
2023/08/17 00:02:22;;;;;;;9.88;6.50;;;;;;;18.77;100.00;95995.94;1026287;28;20034;-79
2023/08/17 00:02:53;;;;;;;12.75;6.60;;;;;;;18.66;100.00;95984.78;1030518;28;20037;-78
2023/08/17 00:03:23;;;;;;;8.15;6.50;;;;;;;18.78;100.00;96002.84;1033554;28;20026;-79
2023/08/17 00:03:54;;;;;;;8.18;6.28;;;;;;;18.76;100.00;95999.69;1030386;28;20026;-78
2023/08/17 00:04:24;;;;;;;10.40;6.82;;;;;;;18.69;100.00;95994.78;1034449;28;20042;-82
2023/08/17 00:04:55;;;;;;;12.32;6.60;;;;;;;18.75;100.00;96000.78;1030547;28;20049;-79
2023/08/17 00:05:26;;;;;;;11.20;6.47;;;;;;;18.68;100.00;95992.44;1033776;28;20407;-79
2023/08/17 00:05:56;;;;;;;13.40;6.88;;;;;;;18.74;100.00;96001.88;1034459;28;20034;-77
2023/08/17 00:06:27;;;;;;;7.72;6.95;;;;;;;18.74;100.00;95997.31;1038318;28;20021;-77
2023/08/17 00:06:57;;;;;;;7.40;6.68;;;;;;;18.71;100.00;95992.63;1038615;28;20033;-77
2023/08/17 00:07:28;;;;;;;7.70;6.80;;;;;;;18.73;100.00;95995.00;1036769;28;20386;-77
2023/08/17 00:08:00;;;;;;;7.10;6.38;;;;;;;18.71;100.00;95991.81;1030500;28;20034;-77
2023/08/17 00:08:30;;;;;;;8.20;6.45;;;;;;;18.77;100.00;96001.25;1028139;28;20047;-78
2023/08/17 00:09:01;;;;;;;9.27;7.03;;;;;;;18.71;100.00;95991.81;1026248;28;20034;-77
2023/08/17 00:09:32;;;;;;;6.97;6.35;;;;;;;18.81;100.00;96003.00;1026621;28;20066;-79
2023/08/17 00:10:03;;;;;;;7.70;6.97;;;;;;;18.83;100.00;96002.69;1030591;28;20510;-79
2023/08/17 00:10:33;;;;;;;8.70;6.85;;;;;;;18.88;100.00;96001.75;1027864;28;20034;-79
2023/08/17 00:11:04;;;;;;;10.07;7.05;;;;;;;18.80;100.00;95992.66;1030577;28;20065;-78
2023/08/17 00:11:34;;;;;;;9.73;7.40;;;;;;;18.87;100.00;96003.63;1030278;28;20038;-79
2023/08/17 00:12:05;;;;;;;8.35;7.40;;;;;;;18.93;100.00;96004.28;1030419;28;20145;-78
2023/08/17 00:12:35;;;;;;;10.00;7.07;;;;;;;18.85;100.00;95992.53;1022390;28;20051;-77
2023/08/17 00:13:06;;;;;;;8.30;7.50;;;;;;;18.91;100.00;96007.22;1022391;28;20485;-78
2023/08/17 00:13:36;;;;;;;10.75;7.85;;;;;;;18.93;100.00;96007.72;1022366;28;20046;-78
2023/08/17 00:14:07;;;;;;;9.65;7.47;;;;;;;18.95;100.00;96002.09;1022232;28;20027;-78
2023/08/17 00:14:37;;;;;;;8.20;7.40;;;;;;;18.94;100.00;96003.97;1022128;28;20024;-78
2023/08/17 00:15:08;;;;;;;10.18;7.47;;;;;;;18.90;100.00;96000.34;1018403;29;20105;-80
2023/08/17 00:15:38;;;;;;;9.18;7.35;;;;;;;18.97;100.00;96011.31;1026391;28;20027;-81
2023/08/17 00:16:09;;;;;;;12.85;8.20;;;;;;;18.96;100.00;96015.09;1030306;28;20592;-77
2023/08/17 00:16:39;;;;;;;9.43;6.88;;;;;;;18.90;100.00;95999.56;1033533;28;20080;-77
2023/08/17 00:17:10;;;;;;;8.75;6.47;;;;;;;18.91;100.00;96001.91;1030185;28;20085;-77
2023/08/17 00:17:40;;;;;;;9.63;7.50;;;;;;;18.92;100.00;96008.81;1022321;29;20793;-77
2023/08/17 00:18:10;;;;;;;9.77;7.10;;;;;;;18.90;100.00;96008.34;1020541;29;20035;-77
2023/08/17 00:18:41;;;;;;;10.00;7.75;;;;;;;18.83;100.00;96000.03;1018631;28;20036;-78
2023/08/17 00:19:11;;;;;;;10.50;7.20;;;;;;;18.84;100.00;96001.59;1026535;28;20481;-76
2023/08/17 00:19:42;;;;;;;9.65;6.82;;;;;;;18.83;100.00;96006.13;1026574;28;20117;-78
2023/08/17 00:20:12;;;;;;;9.68;6.75;;;;;;;18.82;100.00;96009.09;1026332;28;20691;-77
2023/08/17 00:20:44;;;;;;;8.20;6.70;;;;;;;18.75;100.00;96000.78;1025794;28;20061;-79
2023/08/17 00:21:14;;;;;;;9.10;7.10;;;;;;;18.78;100.00;96011.59;1030696;28;20026;-79
2023/08/17 00:21:45;;;;;;;9.40;6.80;;;;;;;18.72;100.00;96006.72;1023191;28;20745;-76
2023/08/17 00:22:15;;;;;;;9.52;6.85;;;;;;;18.71;100.00;96003.25;1022389;29;20126;-78
2023/08/17 00:22:46;;;;;;;10.50;6.93;;;;;;;18.77;100.00;96017.22;1022517;28;20033;-79
2023/08/17 00:23:16;;;;;;;10.95;8.00;;;;;;;18.75;100.00;96006.91;1026248;28;20027;-79
2023/08/17 00:23:47;;;;;;;9.80;6.55;;;;;;;18.67;100.00;96006.81;1030195;28;20061;-79
2023/08/17 00:24:17;;;;;;;8.35;7.07;;;;;;;18.74;100.00;96020.47;1034452;28;20053;-77
2023/08/17 00:24:47;;;;;;;7.90;7.10;;;;;;;18.73;100.00;96021.56;1030372;28;20022;-79
2023/08/17 00:25:18;;;;;;;10.15;6.90;;;;;;;18.58;100.00;96002.28;1026599;28;20495;-79
2023/08/17 00:25:49;;;;;;;9.05;6.55;;;;;;;18.71;100.00;96018.41;1030224;28;20109;-78
2023/08/17 00:26:20;;;;;;;8.05;7.05;;;;;;;18.58;100.00;96015.56;1030456;28;20475;-77
2023/08/17 00:26:50;;;;;;;7.65;6.85;;;;;;;18.63;100.00;96021.81;1022401;28;20025;-78
2023/08/17 00:27:21;;;;;;;7.50;6.65;;;;;;;18.61;100.00;96025.56;1022761;28;20090;-77
2023/08/17 00:27:51;;;;;;;9.68;7.07;;;;;;;18.58;100.00;96020.88;1026378;28;20022;-77
2023/08/17 00:28:22;;;;;;;9.15;6.68;;;;;;;18.55;100.00;96016.16;1025904;28;20019;-77
2023/08/17 00:28:52;;;;;;;10.00;7.22;;;;;;;18.52;100.00;96022.09;1030430;28;20018;-78
2023/08/17 00:29:23;;;;;;;11.32;7.65;;;;;;;18.60;100.00;96039.16;1031271;28;20459;-77
2023/08/17 00:29:53;;;;;;;20.13;8.25;;;;;;;18.60;100.00;96033.84;1034429;28;20025;-78
2023/08/17 00:30:23;;;;;;;11.15;7.20;;;;;;;18.55;100.00;96037.44;1029818;28;20033;-77
2023/08/17 00:30:54;;;;;;;13.05;7.72;;;;;;;18.54;100.00;96037.72;1022373;28;20140;-79
2023/08/17 00:31:24;;;;;;;10.10;7.40;;;;;;;18.54;100.00;96041.19;1022362;28;20019;-79
2023/08/17 00:31:55;;;;;;;10.13;7.38;;;;;;;18.54;100.00;96041.19;1029154;28;20400;-77
2023/08/17 00:32:25;;;;;;;8.93;8.02;;;;;;;18.53;100.00;96034.28;1034245;28;20076;-78
2023/08/17 00:32:56;;;;;;;8.32;7.47;;;;;;;18.52;100.00;96037.25;1038631;28;20022;-76
2023/08/17 00:33:26;;;;;;;11.25;7.70;;;;;;;18.53;100.00;96038.81;1036997;28;20068;-77
2023/08/17 00:33:57;;;;;;;8.52;7.57;;;;;;;18.50;100.00;96040.22;1034524;28;20018;-78
2023/08/17 00:34:27;;;;;;;8.40;7.18;;;;;;;18.48;100.00;96042.41;1034213;28;20030;-77
2023/08/17 00:34:58;;;;;;;10.73;7.15;;;;;;;18.45;100.00;96043.00;1030454;28;20029;-77
2023/08/17 00:35:28;;;;;;;8.43;6.95;;;;;;;18.48;100.00;96039.75;1030197;28;20041;-77
2023/08/17 00:35:59;;;;;;;11.60;7.32;;;;;;;18.46;100.00;96044.56;1030293;28;20030;-77
2023/08/17 00:36:29;;;;;;;8.77;7.43;;;;;;;18.44;100.00;96044.06;1026205;28;20026;-78
2023/08/17 00:37:00;;;;;;;10.13;7.93;;;;;;;18.42;100.00;96042.84;1030160;28;20031;-77
2023/08/17 00:37:30;;;;;;;8.48;7.20;;;;;;;18.41;100.00;96035.94;1022296;29;20066;-78
2023/08/17 00:38:01;;;;;;;12.65;7.60;;;;;;;18.39;100.00;96030.94;1026421;28;20034;-78
2023/08/17 00:38:31;;;;;;;9.48;7.32;;;;;;;18.48;100.00;96047.72;1030037;28;20485;-76
2023/08/17 00:39:02;;;;;;;10.20;7.28;;;;;;;18.48;100.00;96042.41;1030497;28;20061;-78
2023/08/17 00:39:32;;;;;;;9.57;7.70;;;;;;;18.47;100.00;96046.13;1026417;28;20055;-78
2023/08/17 00:40:04;;;;;;;11.15;7.63;;;;;;;18.47;100.00;96050.66;1022728;28;20027;-79
2023/08/17 00:40:34;;;;;;;9.77;6.97;;;;;;;18.50;100.00;96042.88;1025635;28;20098;-75
2023/08/17 00:41:05;;;;;;;9.07;7.18;;;;;;;18.50;100.00;96042.88;1026403;28;20486;-77
2023/08/17 00:41:35;;;;;;;10.73;7.05;;;;;;;18.49;100.00;96043.97;1026704;28;20517;-77
2023/08/17 00:42:07;;;;;;;12.05;7.80;;;;;;;18.43;100.00;96037.22;1030367;28;20137;-78
2023/08/17 00:42:38;;;;;;;8.20;7.28;;;;;;;18.46;100.00;96039.25;1034351;28;20044;-77
2023/08/17 00:43:08;;;;;;;7.53;6.70;;;;;;;18.37;100.00;96030.44;1030250;28;20021;-78
2023/08/17 00:43:39;;;;;;;10.25;7.43;;;;;;;18.47;100.00;96046.13;1031536;28;20037;-77
2023/08/17 00:44:09;;;;;;;12.23;7.70;;;;;;;18.46;100.00;96036.59;1034404;28;20026;-79
2023/08/17 00:44:40;;;;;;;11.48;7.57;;;;;;;18.26;100.00;96011.34;1034397;28;20510;-77
2023/08/17 00:45:10;;;;;;;11.38;7.13;;;;;;;18.43;100.00;96042.53;1034487;28;20026;-77
2023/08/17 00:45:41;;;;;;;9.35;7.53;;;;;;;18.44;100.00;96043.28;1034422;28;20026;-77
2023/08/17 00:46:11;;;;;;;11.60;7.15;;;;;;;18.42;100.00;96045.50;1034468;28;20026;-78
2023/08/17 00:46:42;;;;;;;9.40;7.15;;;;;;;18.38;100.00;96030.16;1034551;28;20659;-77
2023/08/17 00:47:12;;;;;;;8.98;7.55;;;;;;;18.41;100.00;96042.06;1027550;28;20023;-78
2023/08/17 00:47:43;;;;;;;9.23;7.38;;;;;;;18.35;100.00;96043.28;1026577;28;20026;-80
2023/08/17 00:48:13;;;;;;;8.30;7.40;;;;;;;18.28;100.00;96027.75;1026463;28;20050;-79
2023/08/17 00:48:44;;;;;;;8.20;7.03;;;;;;;18.32;100.00;96041.22;1030114;28;20485;-79
2023/08/17 00:49:14;;;;;;;13.52;6.93;;;;;;;18.12;100.00;96013.28;1026365;28;20485;-76
2023/08/17 00:49:45;;;;;;;8.65;6.93;;;;;;;18.27;100.00;96041.34;1026452;28;20023;-77
2023/08/17 00:50:15;;;;;;;9.82;7.43;;;;;;;18.26;100.00;96045.88;1022335;29;20114;-78
2023/08/17 00:50:47;;;;;;;8.75;7.30;;;;;;;18.17;100.00;96028.31;1025416;28;20027;-76
2023/08/17 00:51:20;;;;;;;10.13;7.75;;;;;;;18.08;100.00;96022.97;1029555;28;20103;-77
2023/08/17 00:51:51;;;;;;;9.70;7.82;;;;;;;18.08;100.00;96021.09;1029515;28;20088;-78
2023/08/17 00:52:21;;;;;;;12.23;7.95;;;;;;;18.15;100.00;96028.63;1029133;28;20615;-77
2023/08/17 00:52:52;;;;;;;11.45;7.32;;;;;;;18.08;100.00;96034.34;1030275;28;20042;-78
2023/08/17 00:53:22;;;;;;;10.02;7.40;;;;;;;18.08;100.00;96031.72;1034492;28;20487;-77
2023/08/17 00:53:54;;;;;;;11.35;7.90;;;;;;;18.05;100.00;96029.66;1026249;28;20077;-77
2023/08/17 00:54:25;;;;;;;12.13;7.45;;;;;;;18.06;100.00;96023.25;1026307;28;20814;-77
2023/08/17 00:54:56;;;;;;;12.73;7.78;;;;;;;18.08;100.00;96031.72;1030276;28;20088;-77
2023/08/17 00:55:27;;;;;;;8.65;7.43;;;;;;;18.06;100.00;96022.47;1030168;28;20033;-77
2023/08/17 00:55:57;;;;;;;9.68;7.78;;;;;;;18.01;100.00;96028.69;1021821;29;20378;-77
2023/08/17 00:56:28;;;;;;;11.02;8.38;;;;;;;18.07;100.00;96032.00;1028606;28;20097;-76
2023/08/17 00:56:59;;;;;;;11.15;7.93;;;;;;;17.96;100.00;96020.84;1026310;28;20527;-78
2023/08/17 00:57:30;;;;;;;8.38;7.45;;;;;;;17.99;100.00;96027.41;1029288;28;20030;-77
2023/08/17 00:58:01;;;;;;;11.02;7.97;;;;;;;18.06;100.00;96033.88;1022318;29;20027;-77
2023/08/17 00:58:31;;;;;;;9.73;8.18;;;;;;;18.00;100.00;96023.66;1024098;28;20023;-77
2023/08/17 00:59:02;;;;;;;11.70;8.38;;;;;;;17.98;100.00;96023.22;1026318;28;20057;-78
2023/08/17 00:59:32;;;;;;;10.63;7.90;;;;;;;18.04;100.00;96033.41;1022222;28;20665;-78
2023/08/17 01:00:04;;;;;;;15.15;8.18;;;;;;;17.97;100.00;96025.06;1018231;29;20028;-76
2023/08/17 01:00:35;;;;;;;14.13;8.02;;;;;;;17.99;100.00;96022.13;1021773;28;20533;-78
2023/08/17 01:01:05;;;;;;;9.38;8.43;;;;;;;18.02;100.00;96018.84;1022337;28;20023;-77
2023/08/17 01:01:35;;;;;;;11.93;8.27;;;;;;;18.02;100.00;96027.59;1026141;28;20026;-75
2023/08/17 01:02:06;;;;;;;9.65;8.65;;;;;;;18.05;100.00;96029.66;1022388;28;20071;-77
2023/08/17 01:02:36;;;;;;;9.55;8.60;;;;;;;17.98;100.00;96018.69;1021680;28;20147;-77
2023/08/17 01:03:07;;;;;;;11.45;8.45;;;;;;;18.06;100.00;96031.22;1022313;29;20022;-78
2023/08/17 01:03:40;;;;;;;11.02;8.15;;;;;;;18.04;100.00;96028.09;1022328;29;20103;-77
2023/08/17 01:04:11;;;;;;;15.55;8.45;;;;;;;17.86;100.00;96002.50;1024333;28;20023;-76
2023/08/17 01:04:41;;;;;;;11.40;7.85;;;;;;;18.01;100.00;96028.69;1026776;28;20428;-77
2023/08/17 01:05:12;;;;;;;11.80;8.43;;;;;;;18.01;100.00;96023.38;1030625;28;20034;-78
2023/08/17 01:05:43;;;;;;;12.10;8.65;;;;;;;18.00;100.00;96021.78;1030139;28;20033;-77
2023/08/17 01:06:14;;;;;;;11.15;8.75;;;;;;;17.94;100.00;96015.06;1030296;28;20030;-77
2023/08/17 01:06:44;;;;;;;9.73;8.35;;;;;;;17.88;100.00;96008.31;1022199;29;20533;-76
2023/08/17 01:07:14;;;;;;;10.82;7.95;;;;;;;17.91;100.00;96018.31;1026298;28;20029;-77
2023/08/17 01:07:45;;;;;;;8.98;8.07;;;;;;;17.95;100.00;96032.56;1025944;28;20164;-77
2023/08/17 01:08:15;;;;;;;12.30;8.50;;;;;;;17.93;100.00;96020.66;1026411;28;20023;-78
2023/08/17 01:08:46;;;;;;;12.48;8.27;;;;;;;17.82;100.00;96004.19;1030268;28;20756;-77
2023/08/17 01:09:16;;;;;;;10.85;8.30;;;;;;;17.85;100.00;96011.56;1030211;28;20453;-77
2023/08/17 01:09:47;;;;;;;9.75;8.60;;;;;;;17.82;100.00;96014.81;1032631;28;20026;-77
2023/08/17 01:10:17;;;;;;;9.30;8.30;;;;;;;17.83;100.00;96017.16;1034245;28;20492;-79
2023/08/17 01:11:13;;;;;;;9.10;7.72;;;;;;;17.84;100.00;96018.75;1025717;28;20452;-76
2023/08/17 01:11:53;;;;;;;14.43;8.30;;;;;;;17.68;100.00;95998.91;1022219;29;20030;-76
2023/08/17 01:12:29;;;;;;;9.73;8.02;;;;;;;17.82;100.00;96025.44;1019658;28;20052;-77
2023/08/17 01:13:00;;;;;;;9.00;7.65;;;;;;;17.82;100.00;96025.44;1023225;28;20027;-76
2023/08/17 01:14:07;;;;;;;9.45;7.63;;;;;;;17.80;100.00;96027.59;1028710;28;20027;-76
2023/08/17 01:14:51;;;;;;;10.70;7.80;;;;;;;17.75;100.00;96025.03;1034035;28;20544;-76
2023/08/17 01:15:31;;;;;;;11.43;8.00;;;;;;;17.71;100.00;96010.81;1034501;28;20021;-76
2023/08/17 01:16:02;;;;;;;11.65;8.30;;;;;;;17.80;100.00;96032.91;1030077;28;20029;-78
2023/08/17 01:16:35;;;;;;;12.68;8.25;;;;;;;17.79;100.00;96026.03;1026004;28;20053;-76
2023/08/17 01:17:15;;;;;;;11.23;8.38;;;;;;;17.82;100.00;96034.19;1022069;29;20019;-77
2023/08/17 01:18:00;;;;;;;11.38;9.00;;;;;;;17.84;100.00;96031.22;1022220;29;20035;-77
2023/08/17 01:18:35;;;;;;;9.88;8.32;;;;;;;17.92;100.00;96041.13;1030199;28;20026;-77
2023/08/17 01:19:07;;;;;;;10.73;8.18;;;;;;;17.85;100.00;96024.84;1034179;28;20030;-78
2023/08/17 01:19:38;;;;;;;10.32;8.75;;;;;;;17.84;100.00;96025.91;1022810;28;20090;-78
2023/08/17 01:20:13;;;;;;;12.23;9.10;;;;;;;17.98;100.00;96044.44;1026710;28;20483;-77
2023/08/17 01:20:44;;;;;;;10.68;9.02;;;;;;;18.00;100.00;96048.34;1026471;28;20061;-77
2023/08/17 01:21:16;;;;;;;12.25;9.05;;;;;;;17.99;100.00;96046.00;1023109;29;20122;-77
2023/08/17 01:21:49;;;;;;;12.55;8.93;;;;;;;17.93;100.00;96034.72;1026734;28;20022;-79
2023/08/17 01:22:21;;;;;;;10.73;8.27;;;;;;;18.02;100.00;96038.22;1038912;28;20045;-76
2023/08/17 01:22:56;;;;;;;13.45;8.90;;;;;;;18.01;100.00;96041.97;1030910;28;20050;-79
2023/08/17 01:23:27;;;;;;;14.30;9.45;;;;;;;18.02;100.00;96040.09;1021157;29;20047;-78
2023/08/17 01:23:59;;;;;;;12.48;8.95;;;;;;;18.06;100.00;96044.50;1022994;28;20046;-79
2023/08/17 01:24:29;;;;;;;11.05;8.70;;;;;;;18.12;100.00;96045.94;1022665;29;20041;-79
2023/08/17 01:25:00;;;;;;;12.25;8.82;;;;;;;18.19;100.00;96052.69;1022954;29;20102;-77
2023/08/17 01:25:30;;;;;;;9.85;8.82;;;;;;;18.19;100.00;96050.03;1023026;29;20050;-78
2023/08/17 01:26:01;;;;;;;10.82;8.23;;;;;;;18.12;100.00;96042.50;1023447;28;20030;-77
2023/08/17 01:26:31;;;;;;;11.82;8.10;;;;;;;18.16;100.00;96046.13;1034799;28;20520;-76
2023/08/17 01:27:01;;;;;;;9.82;8.77;;;;;;;18.22;100.00;96052.09;1039090;28;20029;-78
2023/08/17 01:27:39;;;;;;;12.00;9.10;;;;;;;18.19;100.00;96036.75;1034954;28;20041;-77
2023/08/17 01:28:09;;;;;;;11.13;9.15;;;;;;;18.22;100.00;96049.44;1026991;28;20397;-77
2023/08/17 01:28:40;;;;;;;13.77;9.18;;;;;;;18.17;100.00;96041.59;1026683;28;20042;-77
2023/08/17 01:29:10;;;;;;;9.77;8.48;;;;;;;18.21;100.00;96042.53;1023828;28;20050;-78
2023/08/17 01:29:41;;;;;;;10.90;9.35;;;;;;;18.11;100.00;96035.63;1026918;28;20030;-78
2023/08/17 01:30:12;;;;;;;11.80;8.45;;;;;;;18.12;100.00;96034.53;1030710;28;20106;-78
2023/08/17 01:31:20;;;;;;;9.48;8.43;;;;;;;18.14;100.00;96043.78;1018238;29;20536;-77
2023/08/17 01:31:58;;;;;;;9.70;8.30;;;;;;;18.09;100.00;96043.09;1021016;28;20559;-77
2023/08/17 01:32:32;;;;;;;15.15;8.85;;;;;;;17.90;100.00;96016.72;1030463;28;20018;-77
2023/08/17 01:33:08;;;;;;;11.77;8.70;;;;;;;18.03;100.00;96045.09;1035066;28;20034;-78
2023/08/17 01:33:42;;;;;;;10.55;8.85;;;;;;;17.96;100.00;96034.13;1030945;28;20492;-78
2023/08/17 01:34:18;;;;;;;11.32;8.80;;;;;;;17.99;100.00;96041.47;1026783;28;20058;-78
2023/08/17 01:34:51;;;;;;;9.55;8.57;;;;;;;17.92;100.00;96035.03;1026859;28;20112;-80
2023/08/17 01:35:37;;;;;;;11.60;8.68;;;;;;;17.88;100.00;96026.88;1022915;28;20035;-77
2023/08/17 01:36:20;;;;;;;10.30;9.27;;;;;;;17.94;100.00;96031.00;1022944;29;20015;-77
2023/08/17 01:36:58;;;;;;;11.00;9.63;;;;;;;17.90;100.00;96027.34;1019956;29;20028;-79
2023/08/17 01:37:29;;;;;;;11.77;8.75;;;;;;;17.94;100.00;96033.66;1022943;29;20417;-78
2023/08/17 01:38:03;;;;;;;11.50;9.80;;;;;;;17.95;100.00;96021.94;1026931;28;20520;-78
2023/08/17 01:38:34;;;;;;;10.75;9.65;;;;;;;17.95;100.00;96019.28;1024265;28;20114;-77
2023/08/17 01:39:05;;;;;;;10.95;8.95;;;;;;;17.96;100.00;96015.53;1018971;29;20036;-79
2023/08/17 01:39:37;;;;;;;10.20;9.20;;;;;;;17.98;100.00;96016.03;1023045;29;20035;-76
2023/08/17 01:40:09;;;;;;;12.20;8.98;;;;;;;18.04;100.00;96020.13;1027265;28;20058;-76
2023/08/17 01:40:39;;;;;;;12.68;9.10;;;;;;;18.10;100.00;96015.47;1027009;28;20439;-75
2023/08/17 01:41:15;;;;;;;11.85;8.90;;;;;;;18.18;100.00;96016.63;1026759;28;20019;-76
2023/08/17 01:41:45;;;;;;;11.20;9.02;;;;;;;18.19;100.00;96023.50;1025953;28;20022;-78
2023/08/17 01:42:16;;;;;;;10.23;8.85;;;;;;;18.07;100.00;96003.56;1026801;28;20031;-77
2023/08/17 01:42:46;;;;;;;10.73;8.82;;;;;;;18.14;100.00;96011.09;1026878;28;20023;-78
2023/08/17 01:43:17;;;;;;;9.15;8.10;;;;;;;18.05;100.00;95997.78;1018821;29;20404;-79
2023/08/17 01:43:47;;;;;;;12.55;8.52;;;;;;;18.05;100.00;96003.09;1026672;28;20041;-78
2023/08/17 01:44:18;;;;;;;10.27;9.02;;;;;;;18.08;100.00;96013.13;1026895;28;20097;-77
2023/08/17 01:44:48;;;;;;;21.92;9.35;;;;;;;18.12;100.00;96019.38;1019101;29;20039;-76
2023/08/17 01:45:19;;;;;;;10.65;9.65;;;;;;;18.03;100.00;96009.78;1026702;28;20445;-79
2023/08/17 01:45:49;;;;;;;11.95;8.60;;;;;;;18.05;100.00;96013.72;1026838;28;20027;-78
2023/08/17 01:46:20;;;;;;;10.68;9.50;;;;;;;18.06;100.00;96022.47;1022515;29;20648;-79
2023/08/17 01:46:50;;;;;;;11.48;9.20;;;;;;;18.00;100.00;96011.19;1018897;29;20039;-79
2023/08/17 01:47:22;;;;;;;10.95;8.50;;;;;;;17.94;100.00;96001.78;1020117;28;20028;-79
2023/08/17 01:47:52;;;;;;;10.40;8.88;;;;;;;17.99;100.00;96012.28;1031120;28;20022;-76
2023/08/17 01:48:22;;;;;;;16.23;9.18;;;;;;;17.94;100.00;96000.97;1031084;28;20034;-77
2023/08/17 01:48:53;;;;;;;11.75;9.05;;;;;;;17.89;100.00;96002.69;1028404;28;20038;-78
2023/08/17 01:49:23;;;;;;;9.32;8.20;;;;;;;17.98;100.00;96017.91;1022944;28;20397;-78
2023/08/17 01:49:55;;;;;;;12.13;9.25;;;;;;;17.97;100.00;96017.09;1023027;28;20521;-79
2023/08/17 01:50:26;;;;;;;11.15;9.25;;;;;;;17.94;100.00;96017.72;1027305;28;20062;-77
2023/08/17 01:50:56;;;;;;;9.25;8.30;;;;;;;17.97;100.00;96016.31;1026669;28;20038;-77
2023/08/17 01:51:27;;;;;;;12.48;8.75;;;;;;;17.89;100.00;96001.91;1025239;28;20023;-76
2023/08/17 01:51:58;;;;;;;11.95;9.00;;;;;;;17.81;100.00;95998.09;1022792;29;20464;-78
2023/08/17 01:52:28;;;;;;;12.80;8.63;;;;;;;17.79;100.00;96002.91;1026650;28;20031;-79
2023/08/17 01:52:58;;;;;;;10.63;9.27;;;;;;;17.87;100.00;96012.03;1027079;28;20130;-79
2023/08/17 01:53:29;;;;;;;11.80;8.90;;;;;;;17.87;100.00;96015.50;1030949;28;20030;-79
2023/08/17 01:53:59;;;;;;;10.50;9.35;;;;;;;17.86;100.00;96015.78;1034693;28;20228;-77
2023/08/17 01:54:30;;;;;;;12.23;9.05;;;;;;;17.85;100.00;96019.53;1034928;28;20037;-77
2023/08/17 01:55:00;;;;;;;10.43;8.93;;;;;;;17.83;100.00;96014.50;1035006;28;20026;-79
2023/08/17 01:55:31;;;;;;;13.80;9.05;;;;;;;17.82;100.00;96009.50;1034625;28;20034;-79
2023/08/17 01:56:01;;;;;;;13.13;9.63;;;;;;;17.81;100.00;96010.59;1030661;28;20388;-77
2023/08/17 01:56:32;;;;;;;9.07;8.27;;;;;;;17.81;100.00;96008.72;1030899;28;20023;-76
2023/08/17 01:57:02;;;;;;;12.57;8.80;;;;;;;17.80;100.00;96017.75;1030875;28;20397;-77
2023/08/17 01:57:33;;;;;;;10.05;8.90;;;;;;;17.79;100.00;96021.50;1034984;28;20028;-78
2023/08/17 01:58:03;;;;;;;10.20;8.10;;;;;;;17.77;100.00;96007.75;1039333;28;20021;-77
2023/08/17 01:58:34;;;;;;;11.77;9.35;;;;;;;17.78;100.00;96008.53;1039184;28;20061;-76
2023/08/17 01:59:04;;;;;;;11.35;9.75;;;;;;;17.77;100.00;96009.59;1036778;28;20586;-78
2023/08/17 01:59:35;;;;;;;11.13;9.95;;;;;;;17.77;100.00;96012.25;1031200;28;20022;-78
2023/08/17 02:00:06;;;;;;;10.38;9.27;;;;;;;17.77;100.00;96004.31;1031144;28;20018;-79
2023/08/17 02:00:36;;;;;;;14.45;10.20;;;;;;;17.78;100.00;96013.84;1026479;28;20030;-78
2023/08/17 02:01:07;;;;;;;12.25;9.30;;;;;;;17.74;100.00;96002.22;1026923;28;20019;-77
2023/08/17 02:01:37;;;;;;;12.07;9.70;;;;;;;17.78;100.00;96005.88;1027185;28;20019;-78
2023/08/17 02:02:08;;;;;;;11.85;9.63;;;;;;;17.78;100.00;96013.84;1026890;28;20030;-78
2023/08/17 02:02:38;;;;;;;12.90;10.30;;;;;;;17.79;100.00;96010.09;1030347;28;20377;-76
2023/08/17 02:03:09;;;;;;;10.80;9.05;;;;;;;17.74;100.00;96004.88;1022700;28;20023;-77
2023/08/17 02:03:39;;;;;;;13.90;10.23;;;;;;;17.58;100.00;95981.34;1018899;29;20027;-75
2023/08/17 02:04:10;;;;;;;10.95;9.85;;;;;;;17.68;100.00;95999.69;1024764;28;20045;-79
2023/08/17 02:04:40;;;;;;;11.38;10.18;;;;;;;17.74;100.00;96007.53;1031020;28;20105;-76
2023/08/17 02:05:11;;;;;;;10.07;8.60;;;;;;;17.72;100.00;96004.41;1026797;28;20515;-77
2023/08/17 02:05:45;;;;;;;10.13;9.13;;;;;;;17.67;100.00;95997.31;1026064;28;20027;-77
2023/08/17 02:06:16;;;;;;;11.10;9.70;;;;;;;17.77;100.00;96012.25;1026851;28;20026;-75
2023/08/17 02:06:46;;;;;;;11.98;9.82;;;;;;;17.71;100.00;96008.16;1022854;29;20016;-77
2023/08/17 02:07:17;;;;;;;11.65;9.65;;;;;;;17.73;100.00;96016.59;1026879;28;20026;-77
2023/08/17 02:07:47;;;;;;;25.30;10.20;;;;;;;17.74;100.00;96015.50;1026834;28;20456;-79
2023/08/17 02:08:18;;;;;;;18.08;10.68;;;;;;;17.71;100.00;96010.81;1022805;28;20015;-76
2023/08/17 02:08:48;;;;;;;13.48;9.98;;;;;;;17.69;100.00;96005.78;1022880;29;20408;-78
2023/08/17 02:09:18;;;;;;;13.75;10.80;;;;;;;17.69;100.00;96008.44;1022681;28;20088;-78
2023/08/17 02:09:49;;;;;;;11.85;9.73;;;;;;;17.61;100.00;96004.66;1022758;28;20023;-76
2023/08/17 02:10:19;;;;;;;14.55;10.82;;;;;;;17.66;100.00;96003.72;1026316;28;20026;-78
2023/08/17 02:10:50;;;;;;;18.42;10.20;;;;;;;17.56;100.00;95990.69;1026911;28;20768;-78
2023/08/17 02:11:20;;;;;;;14.00;10.13;;;;;;;17.63;100.00;96006.97;1037415;28;20024;-77
2023/08/17 02:11:51;;;;;;;15.73;10.73;;;;;;;17.63;100.00;96002.44;1034649;28;20033;-75
2023/08/17 02:12:21;;;;;;;12.65;10.88;;;;;;;17.54;100.00;95983.06;1026569;28;20855;-78
2023/08/17 02:12:52;;;;;;;14.60;10.57;;;;;;;17.53;100.00;95986.78;1026724;28;20030;-76
2023/08/17 02:13:22;;;;;;;27.42;11.00;;;;;;;17.60;100.00;95997.75;1026653;28;20022;-77
2023/08/17 02:13:52;;;;;;;12.38;10.20;;;;;;;17.63;100.00;96004.31;1026687;28;20030;-77
2023/08/17 02:14:23;;;;;;;12.50;10.82;;;;;;;17.60;100.00;96002.28;1022842;29;20703;-76
2023/08/17 02:14:53;;;;;;;14.63;10.40;;;;;;;17.59;100.00;95995.41;1022906;28;20027;-77
2023/08/17 02:15:24;;;;;;;12.50;10.65;;;;;;;17.64;100.00;95993.44;1030882;28;20022;-78
2023/08/17 02:15:54;;;;;;;14.15;10.93;;;;;;;17.57;100.00;95986.94;1030957;28;20029;-75
2023/08/17 02:16:25;;;;;;;13.25;11.70;;;;;;;17.61;100.00;95998.56;1034849;28;20029;-78
2023/08/17 02:16:55;;;;;;;12.02;10.82;;;;;;;17.63;100.00;95997.16;1031028;28;20014;-77
2023/08/17 02:17:26;;;;;;;15.55;11.00;;;;;;;17.64;100.00;95998.75;1022728;29;20035;-78
2023/08/17 02:18:00;;;;;;;13.15;10.52;;;;;;;17.61;100.00;95994.03;1022968;29;20023;-77
2023/08/17 02:18:32;;;;;;;13.50;11.15;;;;;;;17.60;100.00;96004.94;1030645;28;20057;-77
2023/08/17 02:19:03;;;;;;;12.75;10.77;;;;;;;17.62;100.00;96000.91;1034988;28;20480;-77
2023/08/17 02:19:33;;;;;;;11.98;10.77;;;;;;;17.63;100.00;95999.81;1030679;28;20034;-77
2023/08/17 02:20:05;;;;;;;14.05;10.82;;;;;;;17.64;100.00;96004.03;1031100;28;20393;-78
2023/08/17 02:20:35;;;;;;;16.50;10.45;;;;;;;17.66;100.00;96007.16;1034145;28;20038;-77
2023/08/17 02:21:06;;;;;;;12.90;11.60;;;;;;;17.64;100.00;96004.03;1030633;28;20022;-78
2023/08/17 02:21:36;;;;;;;14.70;11.85;;;;;;;17.67;100.00;96002.63;1030586;28;20398;-78
2023/08/17 02:22:07;;;;;;;15.15;12.50;;;;;;;17.65;100.00;96000.28;1030723;28;20038;-78
2023/08/17 02:22:37;;;;;;;15.75;12.35;;;;;;;17.66;100.00;96006.38;1030881;28;20038;-77
2023/08/17 02:23:08;;;;;;;14.27;11.52;;;;;;;17.67;100.00;95998.13;1026880;28;20047;-79
2023/08/17 02:23:38;;;;;;;16.08;12.60;;;;;;;17.70;100.00;96003.91;1030153;28;20023;-78
2023/08/17 02:24:09;;;;;;;13.45;12.02;;;;;;;17.66;100.00;95995.78;1030588;28;20027;-77
2023/08/17 02:24:40;;;;;;;13.52;11.85;;;;;;;17.67;100.00;95995.47;1031424;28;20499;-77
2023/08/17 02:25:11;;;;;;;14.52;12.63;;;;;;;17.65;100.00;95984.38;1031483;28;20065;-78
2023/08/17 02:25:41;;;;;;;13.23;11.93;;;;;;;17.75;100.00;95999.28;1027390;28;20079;-76